Florida, Indiana
Current Conditions -  °F | °C
As of 2:53 AM on Saturday 25 Oct 2014 (Local Time) from KHUF Reporting Station
Overcast Overcast  
Wind Chill: 13°   Ceiling: 4300
Heat Index: 13°   Visibility: 10mi
Dew Point: 11°   Wind: 3mph
Humidity: 87%   Direction: 180°S
Pressure: 29.99"   Gusts: NA
Location:  39.6386°N, 87.3045°W
Report Text: KHUF 250653Z 18003KT 10SM OVC043 13/11 A2999 RMK AO2 SLP155 T01330111
Loading
Personal Weather Stations






























Interactive Weather Map
Tropical Storm Tracking
New forecast layout! Learn more

10-Day Weather Forecast

Advertisements
Track Severe Weather on mobile